Time;durP1;ratioP1;P1;durP2;ratioP2;P2;SDS_P1;SDS_P2;PMS_P1;PMS_P2;Temp;Humidity;BMP_temperature;BMP_pressure;BME280_temperature;BME280_humidity;BME280_pressure;Samples;Min_cycle;Max_cycle;Signal;HPM_P1;HPM_P2
2021/11/20 00:03:47;;;;;;;45.20;33.08;;;;;;;13.23;72.32;101579.09;5589179;22;20045;-82
2021/11/20 00:06:18;;;;;;;46.70;33.28;;;;;;;13.17;72.56;101578.38;5066414;28;20060;-81
2021/11/20 00:08:45;;;;;;;47.30;32.17;;;;;;;13.24;72.56;101572.38;5064908;28;20048;-82
2021/11/20 00:11:17;;;;;;;44.75;32.38;;;;;;;13.26;72.35;101573.72;5072990;28;20044;-82
2021/11/20 00:13:46;;;;;;;43.38;31.65;;;;;;;13.31;72.33;101576.50;5065334;28;20064;-82
2021/11/20 00:16:14;;;;;;;43.83;30.65;;;;;;;13.32;72.20;101575.34;5073320;28;20053;-82
2021/11/20 00:18:42;;;;;;;46.83;31.98;;;;;;;13.26;72.36;101572.91;5073095;28;20052;-81
2021/11/20 00:21:12;;;;;;;42.42;31.95;;;;;;;13.12;72.88;101567.25;5072093;28;20063;-81
2021/11/20 00:23:42;;;;;;;43.22;30.08;;;;;;;13.22;72.29;101566.25;5058915;28;20427;-81
2021/11/20 00:26:12;;;;;;;41.85;30.60;;;;;;;13.26;72.22;101568.13;5073431;28;20064;-82
2021/11/20 00:29:06;;;;;;;44.03;31.33;;;;;;;13.22;72.15;101564.28;5067284;28;20067;-82
2021/11/20 00:31:38;;;;;;;45.33;29.08;;;;;;;13.23;71.96;101557.56;5076145;28;20060;-82
2021/11/20 00:34:09;;;;;;;42.60;30.02;;;;;;;13.18;72.23;101572.44;5076756;28;20413;-82
2021/11/20 00:36:36;;;;;;;41.33;30.23;;;;;;;13.17;72.50;101567.19;5075513;28;20056;-82
2021/11/20 00:39:05;;;;;;;41.45;30.30;;;;;;;13.20;72.44;101575.78;5076335;28;20056;-82
2021/11/20 00:41:33;;;;;;;40.58;28.73;;;;;;;13.21;72.16;101571.03;5075058;28;20052;-82
2021/11/20 00:44:02;;;;;;;41.78;30.05;;;;;;;13.23;72.37;101570.72;5067181;28;20052;-81
2021/11/20 00:46:32;;;;;;;40.28;27.55;;;;;;;13.26;72.26;101568.13;5075918;28;20056;-82
2021/11/20 00:49:03;;;;;;;40.53;29.85;;;;;;;13.28;72.19;101565.88;5067019;28;20413;-82
2021/11/20 00:51:31;;;;;;;42.60;28.67;;;;;;;13.31;71.84;101551.31;5075450;28;20079;-82
2021/11/20 00:53:59;;;;;;;42.92;30.58;;;;;;;13.27;71.97;101564.22;5074963;28;20523;-82
2021/11/20 00:56:28;;;;;;;43.28;30.30;;;;;;;13.31;71.58;101562.50;5074662;28;20067;-82
2021/11/20 00:58:59;;;;;;;44.50;31.13;;;;;;;13.31;71.70;101570.91;5075794;28;20052;-82
2021/11/20 01:01:34;;;;;;;41.70;30.00;;;;;;;13.32;71.83;101566.94;5075498;28;20437;-82
2021/11/20 01:04:03;;;;;;;42.97;29.52;;;;;;;13.34;72.04;101561.88;5073379;28;20241;-82
2021/11/20 01:06:31;;;;;;;42.92;29.52;;;;;;;13.32;71.55;101564.16;5095944;28;20052;-82
2021/11/20 01:08:58;;;;;;;43.20;30.33;;;;;;;13.15;72.56;101556.28;5095576;28;20063;-82
2021/11/20 01:11:30;;;;;;;41.45;29.23;;;;;;;13.12;72.60;101548.53;5086211;28;20056;-82
2021/11/20 01:13:59;;;;;;;40.10;27.98;;;;;;;13.16;72.22;101551.50;5056487;28;20524;-82
2021/11/20 01:16:29;;;;;;;;;;;;;;;12.87;73.32;101554.50;5096233;28;20515;-82
2021/11/20 01:18:58;;;;;;;40.03;28.00;;;;;;;12.96;73.19;101552.69;5095793;28;19927;-82
2021/11/20 01:21:28;;;;;;;42.53;28.63;;;;;;;13.14;72.35;101548.19;5090605;28;20060;-82
2021/11/20 01:23:56;;;;;;;42.72;28.13;;;;;;;13.19;72.24;101548.94;5072342;28;20059;-82
2021/11/20 01:26:23;;;;;;;40.05;28.35;;;;;;;13.20;72.50;101541.38;5087726;28;20057;-81
2021/11/20 01:28:56;;;;;;;40.75;27.80;;;;;;;13.22;72.28;101541.91;5060646;28;20053;-82
2021/11/20 01:31:26;;;;;;;37.22;27.60;;;;;;;13.13;72.60;101541.78;5054886;28;20061;-82
2021/11/20 01:33:54;;;;;;;39.15;26.98;;;;;;;13.14;71.99;101539.81;5073753;28;20420;-82
2021/11/20 01:36:24;;;;;;;37.45;26.33;;;;;;;13.15;72.23;101527.50;5096200;28;20071;-82
2021/11/20 01:38:53;;;;;;;38.65;27.30;;;;;;;13.11;72.46;101527.25;5087245;28;20063;-82
2021/11/20 01:41:24;;;;;;;34.03;26.10;;;;;;;13.19;71.94;101517.34;5077780;28;20385;-82
2021/11/20 01:43:55;;;;;;;35.10;24.52;;;;;;;13.13;72.17;101513.81;5067790;28;20055;-81
2021/11/20 01:46:26;;;;;;;37.50;25.25;;;;;;;12.95;72.61;101518.28;5059732;28;20072;-81
2021/11/20 01:49:14;;;;;;;33.35;24.83;;;;;;;13.00;72.55;101518.22;5074940;28;20070;-81
2021/11/20 01:51:46;;;;;;;37.65;26.20;;;;;;;12.86;73.04;101513.72;5088401;28;20059;-81
2021/11/20 01:54:30;;;;;;;36.65;26.40;;;;;;;12.89;72.84;101510.28;5057880;28;20049;-81
2021/11/20 01:57:03;;;;;;;35.10;24.83;;;;;;;12.83;72.62;101509.56;5070799;28;20051;-81
2021/11/20 01:59:34;;;;;;;34.65;25.08;;;;;;;12.89;72.63;101508.34;5068091;28;20539;-81
2021/11/20 02:02:11;;;;;;;35.33;25.02;;;;;;;12.86;72.51;101497.75;5094707;28;20066;-81
2021/11/20 02:04:44;;;;;;;36.78;25.55;;;;;;;12.89;72.69;101496.31;5084834;28;20053;-81
2021/11/20 02:07:17;;;;;;;33.05;23.83;;;;;;;12.89;72.56;101499.09;5074148;28;20052;-81
2021/11/20 02:09:49;;;;;;;33.03;23.83;;;;;;;12.78;72.93;101498.44;5089575;28;20389;-81
2021/11/20 02:12:22;;;;;;;33.03;23.55;;;;;;;12.93;72.19;101498.19;5099347;28;20048;-81
2021/11/20 02:14:50;;;;;;;35.22;24.85;;;;;;;13.02;71.87;101483.50;5079100;28;20398;-81
2021/11/20 02:17:27;;;;;;;32.65;23.60;;;;;;;12.96;72.11;101482.78;5078509;28;20059;-81
2021/11/20 02:20:12;;;;;;;31.60;23.38;;;;;;;12.83;71.79;101490.00;5076747;28;20057;-81
2021/11/20 02:22:39;;;;;;;34.80;23.60;;;;;;;12.86;72.24;101475.38;5070081;28;20048;-81
2021/11/20 02:25:06;;;;;;;33.47;23.88;;;;;;;12.77;72.26;101488.41;5098256;28;20052;-81
2021/11/20 02:27:38;;;;;;;31.27;23.52;;;;;;;12.73;72.56;101487.34;5086775;28;20067;-81
2021/11/20 02:30:18;;;;;;;31.88;21.48;;;;;;;12.72;72.62;101480.09;5079227;28;20523;-81
2021/11/20 02:32:48;;;;;;;28.70;21.33;;;;;;;12.85;71.80;101468.16;5077887;28;20420;-81
2021/11/20 02:35:18;;;;;;;31.30;22.15;;;;;;;12.76;71.62;101481.16;5075668;28;20409;-81
2021/11/20 02:37:46;;;;;;;30.90;21.23;;;;;;;12.57;72.50;101476.41;5058281;28;20061;-81
2021/11/20 02:40:15;;;;;;;31.13;21.77;;;;;;;12.69;72.12;101470.34;5057212;28;20148;-81
2021/11/20 02:42:43;;;;;;;30.30;20.57;;;;;;;12.70;72.59;101476.78;5057621;28;20056;-81
2021/11/20 02:45:16;;;;;;;30.92;21.40;;;;;;;12.74;71.86;101473.06;5057041;28;20983;-81
2021/11/20 02:47:44;;;;;;;31.52;21.65;;;;;;;12.70;72.35;101472.00;5058833;28;20064;-81
2021/11/20 02:50:12;;;;;;;28.60;20.55;;;;;;;12.63;72.30;101465.16;5057394;28;20064;-81
2021/11/20 02:52:39;;;;;;;32.20;22.70;;;;;;;12.67;71.97;101467.03;5058086;28;20396;-81
2021/11/20 02:55:10;;;;;;;30.63;21.98;;;;;;;12.66;71.66;101464.53;5057933;28;20060;-81
2021/11/20 02:57:40;;;;;;;29.00;20.73;;;;;;;12.71;71.41;101465.28;5056150;28;20057;-81
2021/11/20 03:00:11;;;;;;;29.40;20.13;;;;;;;12.69;71.88;101461.97;5072743;28;20057;-81
2021/11/20 03:02:41;;;;;;;29.30;20.63;;;;;;;12.78;71.31;101457.34;5066635;28;20049;-81
2021/11/20 03:05:12;;;;;;;27.40;20.02;;;;;;;12.77;71.33;101458.47;5057468;28;20057;-81
2021/11/20 03:07:39;;;;;;;25.77;20.17;;;;;;;12.74;71.41;101463.84;5057164;28;20053;-81
2021/11/20 03:10:08;;;;;;;28.65;20.90;;;;;;;12.74;70.97;101455.47;5057548;28;20048;-81
2021/11/20 03:12:36;;;;;;;28.70;20.80;;;;;;;12.57;71.44;101462.44;5057466;28;20080;-81
2021/11/20 03:15:05;;;;;;;27.15;19.48;;;;;;;12.71;71.46;101453.28;5059360;28;20053;-81
2021/11/20 03:17:33;;;;;;;29.02;20.00;;;;;;;12.70;71.27;101449.63;5080737;28;20405;-81
2021/11/20 03:20:04;;;;;;;28.20;19.25;;;;;;;12.69;71.47;101444.38;5072658;28;20056;-81
2021/11/20 03:22:39;;;;;;;25.23;18.02;;;;;;;12.66;71.53;101442.16;5072657;28;20053;-81
2021/11/20 03:25:07;;;;;;;27.45;19.73;;;;;;;12.64;71.28;101441.66;5072522;28;20049;-81
2021/11/20 03:27:35;;;;;;;26.13;18.98;;;;;;;12.80;70.66;101445.84;5075093;28;20052;-81
2021/11/20 03:30:04;;;;;;;26.50;18.42;;;;;;;12.70;70.94;101435.66;5076322;28;20057;-81
2021/11/20 03:32:34;;;;;;;28.63;19.17;;;;;;;12.68;70.76;101435.16;5070660;28;20049;-81
2021/11/20 03:35:04;;;;;;;24.92;18.95;;;;;;;12.68;70.72;101439.91;5072392;28;20064;-81
2021/11/20 03:37:31;;;;;;;;;;;;;;;12.42;71.59;101436.69;5072382;28;20059;-81
2021/11/20 03:39:58;;;;;;;25.23;18.63;;;;;;;12.69;70.63;101436.81;5066207;28;19932;-81
2021/11/20 03:42:25;;;;;;;25.00;18.70;;;;;;;12.65;70.61;101432.97;5060043;28;20057;-80
2021/11/20 03:44:57;;;;;;;26.83;19.30;;;;;;;12.66;70.43;101426.25;5070179;28;20065;-80
2021/11/20 03:47:25;;;;;;;27.20;18.85;;;;;;;12.68;70.58;101423.13;5071381;28;20057;-80
2021/11/20 03:49:52;;;;;;;27.13;18.75;;;;;;;12.65;70.36;101420.97;5070376;28;20048;-80
2021/11/20 03:52:21;;;;;;;27.02;20.05;;;;;;;12.70;70.46;101432.88;5073359;28;20059;-80
2021/11/20 03:54:50;;;;;;;23.45;17.75;;;;;;;12.74;70.34;101425.53;5067564;28;20123;-80
2021/11/20 03:57:18;;;;;;;26.33;18.88;;;;;;;12.67;70.78;101433.50;5072338;28;20063;-80
2021/11/20 03:59:45;;;;;;;24.30;18.75;;;;;;;12.65;70.70;101420.97;5069288;28;20057;-80
2021/11/20 04:02:12;;;;;;;27.27;19.42;;;;;;;12.54;70.74;101426.72;5074553;28;20056;-80
2021/11/20 04:04:40;;;;;;;27.63;20.10;;;;;;;12.69;70.22;101428.41;5060950;28;20048;-80
2021/11/20 04:07:07;;;;;;;28.27;19.63;;;;;;;12.60;70.60;101427.47;5055566;28;20421;-80
2021/11/20 04:09:36;;;;;;;27.08;19.63;;;;;;;12.70;70.08;101429.25;5055824;28;20061;-81
2021/11/20 04:12:04;;;;;;;25.05;19.15;;;;;;;12.77;70.21;101433.31;5055196;28;20080;-80
2021/11/20 04:14:31;;;;;;;27.88;20.15;;;;;;;12.79;69.91;101425.47;5057534;28;20061;-81
2021/11/20 04:16:59;;;;;;;26.65;19.10;;;;;;;12.84;69.27;101410.56;5055015;28;20516;-81
2021/11/20 04:19:26;;;;;;;27.42;19.90;;;;;;;12.86;69.57;101419.47;5054621;28;20436;-81
2021/11/20 04:21:54;;;;;;;29.20;20.10;;;;;;;12.84;69.54;101416.16;5055186;28;20064;-81
2021/11/20 04:24:21;;;;;;;28.20;20.20;;;;;;;12.84;69.87;101415.31;5054088;28;20060;-81
2021/11/20 04:26:51;;;;;;;25.75;18.80;;;;;;;12.87;69.48;101406.31;5053598;28;20067;-81
2021/11/20 04:29:19;;;;;;;29.65;19.48;;;;;;;12.91;69.14;101410.97;5054901;28;20061;-80
2021/11/20 04:31:47;;;;;;;27.08;20.35;;;;;;;12.92;69.04;101411.81;5073348;28;20393;-81
2021/11/20 04:34:15;;;;;;;24.15;18.70;;;;;;;12.92;69.30;101412.66;5065887;28;20063;-81
2021/11/20 04:36:44;;;;;;;27.77;19.35;;;;;;;12.89;69.37;101407.69;5073686;28;20056;-81
2021/11/20 04:39:13;;;;;;;30.73;20.73;;;;;;;12.68;69.67;101410.00;5064918;28;20063;-81
2021/11/20 04:41:41;;;;;;;27.05;19.15;;;;;;;12.71;69.76;101411.34;5073327;28;20052;-81
2021/11/20 04:44:09;;;;;;;25.42;19.15;;;;;;;12.72;69.95;101407.41;5065825;28;20512;-80
2021/11/20 04:46:37;;;;;;;28.13;19.90;;;;;;;12.79;69.08;101405.06;5074006;28;20063;-80
2021/11/20 04:49:05;;;;;;;28.90;19.90;;;;;;;12.83;69.27;101397.72;5066136;28;20052;-80
2021/11/20 04:51:33;;;;;;;27.60;18.55;;;;;;;12.83;68.59;101402.47;5074701;28;20048;-80
2021/11/20 04:54:01;;;;;;;26.08;18.73;;;;;;;12.82;68.68;101407.22;5066543;28;20056;-81
2021/11/20 04:56:29;;;;;;;25.02;18.13;;;;;;;12.81;68.67;101394.41;5074168;28;20422;-81
2021/11/20 04:58:58;;;;;;;25.55;18.00;;;;;;;12.83;68.32;101394.06;5065087;28;20420;-80
2021/11/20 05:01:29;;;;;;;23.38;17.38;;;;;;;12.73;68.69;101403.50;5054235;28;20452;-81
2021/11/20 05:03:58;;;;;;;25.42;17.50;;;;;;;12.76;68.57;101406.47;5061422;28;20057;-81
2021/11/20 05:06:27;;;;;;;22.85;16.75;;;;;;;12.76;68.03;101414.88;5073115;28;20071;-81
2021/11/20 05:08:59;;;;;;;23.10;17.07;;;;;;;12.81;67.86;101405.59;5056981;28;20421;-81
2021/11/20 05:11:27;;;;;;;23.23;17.30;;;;;;;12.83;67.23;101403.31;5062415;28;20114;-81
2021/11/20 05:13:54;;;;;;;21.08;16.33;;;;;;;12.83;67.18;101396.88;5057976;28;20076;-81
2021/11/20 05:16:22;;;;;;;23.45;16.27;;;;;;;12.81;66.87;101397.19;5077283;28;20438;-81
2021/11/20 05:18:51;;;;;;;22.75;16.50;;;;;;;12.86;67.13;101397.09;5065024;28;20053;-81
2021/11/20 05:21:22;;;;;;;21.70;15.93;;;;;;;12.86;67.22;101399.88;5070244;28;20417;-81
2021/11/20 05:23:50;;;;;;;21.80;15.80;;;;;;;12.90;66.97;101398.13;5068946;28;20049;-81
2021/11/20 05:26:19;;;;;;;21.87;16.23;;;;;;;12.92;66.76;101395.03;5063704;28;20047;-81
2021/11/20 05:28:52;;;;;;;21.40;15.13;;;;;;;12.96;67.35;101396.91;5061554;28;20061;-81
2021/11/20 05:31:20;;;;;;;19.73;15.25;;;;;;;12.95;67.17;101406.41;5070054;28;20068;-81
2021/11/20 05:33:50;;;;;;;23.00;16.88;;;;;;;12.94;66.89;101392.78;5062032;28;20060;-81
2021/11/20 05:36:25;;;;;;;23.25;16.40;;;;;;;12.87;67.09;101395.13;5060674;28;20052;-81
2021/11/20 05:38:52;;;;;;;23.45;16.27;;;;;;;12.89;66.83;101393.69;5057538;28;20056;-81
2021/11/20 05:41:20;;;;;;;22.33;17.20;;;;;;;12.94;66.90;101385.22;5097577;28;20060;-81
2021/11/20 05:43:47;;;;;;;21.42;16.20;;;;;;;12.93;66.97;101386.31;5088838;28;20063;-81
2021/11/20 05:46:18;;;;;;;19.65;15.48;;;;;;;13.01;66.98;101390.38;5063881;28;20053;-80
2021/11/20 05:48:45;;;;;;;24.05;17.42;;;;;;;12.99;67.18;101390.69;5066238;28;20063;-82
2021/11/20 05:51:13;;;;;;;22.48;16.40;;;;;;;13.02;67.09;101383.66;5057691;28;20049;-81
2021/11/20 05:53:42;;;;;;;22.83;16.45;;;;;;;12.94;67.22;101387.19;5057416;28;20060;-81
2021/11/20 05:56:10;;;;;;;23.40;18.10;;;;;;;12.84;66.52;101387.38;5063201;28;20055;-81
2021/11/20 05:58:38;;;;;;;24.17;19.15;;;;;;;12.82;66.69;101389.63;5085139;28;20056;-81
2021/11/20 06:01:10;;;;;;;23.60;17.45;;;;;;;12.89;66.40;101382.50;5074760;28;20448;-81
2021/11/20 06:03:40;;;;;;;23.23;17.58;;;;;;;12.93;66.54;101377.94;5085919;28;20044;-81
2021/11/20 06:06:09;;;;;;;24.02;18.00;;;;;;;12.90;66.48;101374.94;5098391;28;20052;-81
2021/11/20 06:08:37;;;;;;;22.45;17.45;;;;;;;12.93;66.41;101372.34;5064094;28;20060;-81
2021/11/20 06:11:06;;;;;;;24.02;18.38;;;;;;;12.98;66.23;101372.28;5057164;28;20068;-81
2021/11/20 06:13:35;;;;;;;25.15;18.95;;;;;;;12.95;65.88;101370.06;5039514;28;20056;-81
2021/11/20 06:16:02;;;;;;;23.77;19.05;;;;;;;12.97;65.47;101372.56;5068002;28;20485;-81
2021/11/20 06:18:30;;;;;;;25.50;18.60;;;;;;;12.94;65.18;101374.03;5096525;28;20055;-81
2021/11/20 06:20:58;;;;;;;28.42;19.98;;;;;;;12.79;65.85;101368.72;5091066;28;20053;-81
2021/11/20 06:23:29;;;;;;;25.65;19.70;;;;;;;12.70;65.49;101370.53;5063304;28;20053;-81
2021/11/20 06:25:59;;;;;;;32.47;21.30;;;;;;;12.70;65.02;101367.75;5072445;28;20075;-81
2021/11/20 06:28:28;;;;;;;;;;;;;;;12.47;65.35;101361.97;5098572;28;20060;-81
2021/11/20 06:30:56;;;;;;;30.52;19.67;;;;;;;12.49;66.09;101361.69;5061349;28;19924;-81
2021/11/20 06:33:24;;;;;;;29.10;19.65;;;;;;;12.47;65.83;101367.56;5059997;28;20059;-81
2021/11/20 06:35:52;;;;;;;30.02;20.17;;;;;;;12.43;66.24;101365.69;5077668;28;20052;-80
2021/11/20 06:38:20;;;;;;;32.03;22.17;;;;;;;12.39;66.15;101371.09;5068907;28;20508;-81
2021/11/20 06:40:51;;;;;;;30.52;21.67;;;;;;;12.39;66.16;101365.50;5076581;28;20425;-80
2021/11/20 06:43:21;;;;;;;31.50;20.60;;;;;;;12.27;66.69;101371.53;5070123;28;20052;-80
2021/11/20 06:45:53;;;;;;;32.15;20.98;;;;;;;12.32;67.05;101365.88;5088414;28;20052;-80
2021/11/20 06:48:22;;;;;;;30.27;21.42;;;;;;;12.30;67.10;101368.13;5097212;28;20060;-80
2021/11/20 06:50:51;;;;;;;32.10;21.98;;;;;;;12.35;66.94;101372.84;5064288;28;20064;-80
2021/11/20 06:53:24;;;;;;;30.77;22.63;;;;;;;12.37;66.92;101371.38;5060745;28;20111;-80
2021/11/20 06:55:51;;;;;;;29.85;21.00;;;;;;;12.22;67.36;101374.44;5060489;28;20053;-80
2021/11/20 06:58:42;;;;;;;28.95;20.83;;;;;;;12.38;67.14;101372.22;5061245;28;20071;-80
2021/11/20 07:01:13;;;;;;;30.58;22.30;;;;;;;12.42;67.34;101376.06;5058244;28;20057;-81
2021/11/20 07:03:43;;;;;;;31.25;22.42;;;;;;;12.52;67.10;101381.47;5088157;28;20052;-81
2021/11/20 07:06:15;;;;;;;32.63;22.05;;;;;;;12.58;66.51;101379.44;5096467;28;20059;-80
2021/11/20 07:08:44;;;;;;;36.92;23.42;;;;;;;12.52;66.40;101375.06;5094445;28;20053;-80
2021/11/20 07:11:12;;;;;;;31.95;21.92;;;;;;;12.46;67.07;101374.31;5058399;28;20053;-81
2021/11/20 07:13:40;;;;;;;33.88;22.17;;;;;;;12.47;67.01;101370.38;5058398;28;20402;-81
2021/11/20 07:16:12;;;;;;;33.80;22.55;;;;;;;12.44;67.31;101368.19;5075278;28;20071;-81
2021/11/20 07:18:41;;;;;;;32.88;22.50;;;;;;;12.49;67.37;101370.88;5072657;28;20047;-81
2021/11/20 07:21:10;;;;;;;34.78;23.02;;;;;;;12.44;67.71;101371.00;5076389;28;20067;-81
2021/11/20 07:23:38;;;;;;;35.43;23.13;;;;;;;12.54;67.30;101368.03;5061295;28;20374;-81
2021/11/20 07:26:06;;;;;;;31.88;22.02;;;;;;;12.51;67.00;101362.22;5056835;28;20457;-81
2021/11/20 07:28:34;;;;;;;31.90;21.35;;;;;;;12.50;67.10;101366.97;5057289;28;20056;-80
2021/11/20 07:31:03;;;;;;;32.60;22.25;;;;;;;12.51;66.42;101363.03;5064022;28;20075;-81
2021/11/20 07:33:32;;;;;;;32.53;21.48;;;;;;;12.51;66.45;101363.03;5094125;28;20063;-80
2021/11/20 07:36:02;;;;;;;29.38;20.88;;;;;;;12.44;65.68;101353.41;5095478;28;20056;-81
2021/11/20 07:38:32;;;;;;;28.83;19.40;;;;;;;12.52;65.74;101361.09;5095989;28;20391;-81
2021/11/20 07:41:00;;;;;;;28.75;21.10;;;;;;;12.48;65.80;101351.66;5093343;28;20048;-80
2021/11/20 07:43:28;;;;;;;31.02;21.30;;;;;;;12.50;64.97;101353.00;5066896;28;20063;-80
2021/11/20 07:45:56;;;;;;;32.95;22.60;;;;;;;12.53;65.50;101352.38;5074799;28;20377;-80
2021/11/20 07:48:26;;;;;;;32.33;20.75;;;;;;;12.49;65.68;101351.34;5066322;28;20508;-80
2021/11/20 07:50:57;;;;;;;31.73;21.65;;;;;;;12.58;65.36;101354.28;5075511;28;20418;-81
2021/11/20 07:53:25;;;;;;;30.83;20.52;;;;;;;12.54;65.43;101348.47;5066905;28;20052;-80
2021/11/20 07:55:52;;;;;;;31.80;20.80;;;;;;;12.56;65.29;101353.75;5066376;28;20056;-80
2021/11/20 07:58:21;;;;;;;30.80;21.48;;;;;;;12.50;65.68;101344.63;5073085;28;20049;-80
2021/11/20 08:00:49;;;;;;;29.33;20.52;;;;;;;12.51;65.54;101345.44;5073166;28;20497;-81
2021/11/20 08:03:18;;;;;;;30.05;20.63;;;;;;;12.52;65.61;101335.94;5060715;28;20056;-80
2021/11/20 08:05:46;;;;;;;33.85;20.88;;;;;;;12.44;66.21;101334.66;5058059;28;20056;-81
2021/11/20 08:08:14;;;;;;;32.28;21.77;;;;;;;12.42;66.09;101331.34;5059780;28;20064;-81
2021/11/20 08:10:42;;;;;;;28.50;19.02;;;;;;;12.51;65.27;101335.09;5072424;28;20048;-81
2021/11/20 08:13:10;;;;;;;31.58;20.80;;;;;;;12.42;65.65;101325.75;5055051;28;20057;-81
2021/11/20 08:15:38;;;;;;;28.13;19.65;;;;;;;12.52;65.59;101324.75;5058294;28;20056;-80
2021/11/20 08:18:05;;;;;;;26.58;19.17;;;;;;;12.50;65.15;101321.44;5055297;28;20055;-81
2021/11/20 08:20:36;;;;;;;28.50;19.80;;;;;;;12.56;65.09;101315.44;5056590;28;20056;-80
2021/11/20 08:23:06;;;;;;;28.67;21.15;;;;;;;12.55;65.27;101307.38;5056479;28;20048;-81
2021/11/20 08:25:34;;;;;;;;;;;;;;;12.46;65.30;101304.44;5085991;28;20059;-81
2021/11/20 08:28:01;;;;;;;29.30;19.73;;;;;;;12.51;64.75;101304.34;5070494;28;20291;-81
2021/11/20 08:30:30;;;;;;;27.98;19.27;;;;;;;12.60;64.70;101304.50;5059615;28;20068;-81
2021/11/20 08:32:59;;;;;;;30.80;20.30;;;;;;;12.46;64.92;101296.06;5066506;28;20053;-81
2021/11/20 08:35:27;;;;;;;29.75;20.15;;;;;;;12.41;65.31;101300.91;5070547;28;20053;-81
2021/11/20 08:37:56;;;;;;;27.33;18.35;;;;;;;12.51;64.71;101304.34;5069167;28;20056;-81
2021/11/20 08:40:26;;;;;;;27.20;19.42;;;;;;;12.62;64.61;101295.78;5055326;28;20057;-81
2021/11/20 08:42:56;;;;;;;26.60;18.85;;;;;;;12.51;65.03;101287.59;5058214;28;20497;-81
2021/11/20 08:45:26;;;;;;;30.38;21.23;;;;;;;12.54;65.17;101284.19;5056090;28;20140;-81
2021/11/20 08:47:56;;;;;;;28.52;18.92;;;;;;;12.55;65.41;101280.25;5064637;28;20128;-81
2021/11/20 08:50:26;;;;;;;29.52;19.95;;;;;;;12.68;65.00;101284.22;5053456;28;20055;-81
2021/11/20 08:52:53;;;;;;;30.80;19.95;;;;;;;12.65;64.42;101282.03;5053716;28;20401;-81
2021/11/20 08:55:21;;;;;;;28.35;19.15;;;;;;;12.73;64.57;101283.28;5053811;28;20055;-80
2021/11/20 08:57:49;;;;;;;28.30;19.30;;;;;;;12.81;64.02;101282.56;5053434;28;20402;-80
2021/11/20 09:00:23;;;;;;;29.25;19.63;;;;;;;12.78;63.93;101283.19;5073466;28;20100;-81
2021/11/20 09:02:55;;;;;;;28.95;20.48;;;;;;;12.85;63.81;101285.56;5067437;28;20057;-81
2021/11/20 09:05:27;;;;;;;28.83;20.17;;;;;;;12.76;64.32;101289.06;5064581;28;20409;-81
2021/11/20 09:07:59;;;;;;;28.10;19.50;;;;;;;12.78;63.91;101283.19;5057310;28;20057;-80
2021/11/20 09:10:30;;;;;;;27.50;19.40;;;;;;;12.92;63.48;101286.00;5064580;28;20135;-80
2021/11/20 09:13:05;;;;;;;27.42;19.27;;;;;;;12.92;63.33;101289.59;5057985;28;20498;-80
2021/11/20 09:15:39;;;;;;;30.08;19.92;;;;;;;13.00;62.97;101277.69;5053598;28;20053;-81
2021/11/20 09:18:07;;;;;;;27.88;19.00;;;;;;;12.87;63.21;101269.31;5058996;28;20053;-84
2021/11/20 09:20:35;;;;;;;27.02;18.48;;;;;;;13.00;63.26;101271.28;5072247;28;20052;-85
2021/11/20 09:23:03;;;;;;;25.60;18.92;;;;;;;12.74;63.77;101270.94;5073764;28;20483;-85
2021/11/20 09:25:31;;;;;;;26.75;19.33;;;;;;;12.90;63.46;101268.69;5070490;28;20053;-84
2021/11/20 09:27:59;;;;;;;28.17;20.52;;;;;;;12.91;63.47;101271.16;5070124;28;20049;-84
2021/11/20 09:30:31;;;;;;;26.50;19.70;;;;;;;12.95;62.96;101272.19;5065372;28;20048;-84
2021/11/20 09:33:00;;;;;;;25.90;18.40;;;;;;;13.05;62.48;101262.78;5058442;28;20053;-83
2021/11/20 09:35:27;;;;;;;28.30;19.55;;;;;;;13.21;62.19;101271.69;5073661;28;20515;-84
2021/11/20 09:37:55;;;;;;;26.50;19.52;;;;;;;12.85;62.76;101261.25;5073465;28;20051;-84
2021/11/20 09:40:26;;;;;;;25.10;18.35;;;;;;;12.96;62.08;101265.47;5070713;28;20056;-86
2021/11/20 09:42:55;;;;;;;26.58;18.75;;;;;;;13.06;62.29;101255.22;5053384;28;20402;-83
2021/11/20 09:45:28;;;;;;;;;;;;;;;13.13;61.81;101258.44;5069712;28;20049;-83
2021/11/20 09:48:12;;;;;;;27.65;19.88;;;;;;;13.19;61.93;101254.38;5056511;28;19928;-85
2021/11/20 09:50:44;;;;;;;25.30;19.33;;;;;;;12.98;62.19;101252.00;5060379;28;20402;-85
2021/11/20 09:53:13;;;;;;;25.73;18.63;;;;;;;13.03;62.46;101255.84;5066383;28;20080;-82
2021/11/20 09:55:44;;;;;;;25.10;18.17;;;;;;;13.05;62.34;101243.19;5061692;28;20064;-82
2021/11/20 09:58:16;;;;;;;25.88;19.58;;;;;;;13.16;61.89;101249.41;5054688;28;20474;-82
2021/11/20 10:00:55;;;;;;;27.33;19.45;;;;;;;13.14;62.24;101241.31;5070029;28;20413;-81
2021/11/20 10:03:35;;;;;;;25.98;17.92;;;;;;;12.81;62.86;101249.03;5071015;28;20048;-81
2021/11/20 10:06:05;;;;;;;24.20;18.10;;;;;;;12.97;62.20;101239.16;5066761;28;20059;-81
2021/11/20 10:08:35;;;;;;;26.65;18.02;;;;;;;13.07;61.74;101237.31;5069764;28;20060;-80
2021/11/20 10:11:14;;;;;;;21.90;16.45;;;;;;;13.13;61.19;101241.66;5071922;28;20061;-82
2021/11/20 10:13:50;;;;;;;23.70;16.83;;;;;;;13.19;61.19;101232.81;5063916;28;20497;-85
2021/11/20 10:16:21;;;;;;;24.15;19.33;;;;;;;13.09;61.46;101227.44;5074093;28;20079;-85
2021/11/20 10:18:53;;;;;;;24.65;19.00;;;;;;;13.22;61.39;101222.97;5069197;28;20053;-84
2021/11/20 10:21:31;;;;;;;23.17;17.90;;;;;;;13.25;61.38;101218.72;5076020;28;20784;-84
2021/11/20 10:24:09;;;;;;;23.73;17.60;;;;;;;13.06;60.97;101213.25;5069460;28;20052;-85
2021/11/20 10:27:06;;;;;;;24.13;18.27;;;;;;;13.28;60.43;101218.91;5056532;28;20436;-85
2021/11/20 10:29:55;;;;;;;23.33;17.13;;;;;;;13.32;60.34;101219.97;5053017;28;20049;-87
2021/11/20 10:32:37;;;;;;;24.63;17.92;;;;;;;13.17;61.04;101206.31;5061868;28;20055;-87
2021/11/20 10:35:15;;;;;;;23.35;17.35;;;;;;;13.05;61.34;101206.03;5076196;28;20052;-88
2021/11/20 10:37:45;;;;;;;21.17;16.30;;;;;;;12.95;61.58;101205.09;5069590;28;20413;-86
2021/11/20 10:40:21;;;;;;;21.77;17.30;;;;;;;13.03;61.33;101192.34;5075036;28;20444;-86
2021/11/20 10:42:55;;;;;;;24.63;17.88;;;;;;;12.92;61.80;101196.50;5064385;28;20048;-85
2021/11/20 10:45:45;;;;;;;23.10;17.17;;;;;;;13.03;61.87;101189.53;5061340;28;20060;-84
2021/11/20 10:48:32;;;;;;;20.80;15.77;;;;;;;12.86;61.70;101195.78;5072459;28;20064;-84
2021/11/20 10:51:33;;;;;;;22.70;16.40;;;;;;;12.73;61.90;101189.06;5075669;28;20060;-83
2021/11/20 10:54:33;;;;;;;24.17;18.33;;;;;;;12.85;62.00;101187.69;5066595;28;20063;-83
2021/11/20 10:57:12;;;;;;;22.42;16.48;;;;;;;12.93;61.33;101179.41;5061629;28;20053;-84
2021/11/20 11:00:03;;;;;;;23.33;17.38;;;;;;;12.90;61.83;101174.44;5065360;28;20057;-82
2021/11/20 11:03:02;;;;;;;21.40;16.45;;;;;;;12.77;61.43;101164.94;5074752;28;20048;-85
2021/11/20 11:06:13;;;;;;;21.58;16.48;;;;;;;12.84;61.28;101164.50;5058523;28;20053;-84
2021/11/20 11:08:49;;;;;;;23.77;17.95;;;;;;;12.73;61.91;101169.50;5076019;28;20053;-80
2021/11/20 11:11:23;;;;;;;22.88;16.77;;;;;;;12.64;62.22;101159.34;5064457;28;20056;-81
2021/11/20 11:14:16;;;;;;;25.10;18.73;;;;;;;12.88;61.95;101157.16;5055803;28;20083;-80
2021/11/20 11:16:47;;;;;;;23.05;18.08;;;;;;;12.94;61.21;101150.31;5063037;28;20052;-80
2021/11/20 11:19:45;;;;;;;20.63;16.67;;;;;;;12.94;61.62;101147.50;5073084;28;20497;-80
2021/11/20 11:22:23;;;;;;;25.08;17.15;;;;;;;13.06;60.59;101138.59;5052869;28;20420;-80
2021/11/20 11:25:10;;;;;;;22.33;17.25;;;;;;;13.14;60.75;101148.19;5064723;28;20499;-82
2021/11/20 11:28:04;;;;;;;20.92;16.50;;;;;;;12.98;60.62;101151.34;5065895;28;20052;-82
2021/11/20 11:30:37;;;;;;;18.75;14.90;;;;;;;12.96;61.02;101147.22;5076355;28;20060;-82
2021/11/20 11:33:05;;;;;;;19.33;15.23;;;;;;;12.90;60.89;101134.47;5076405;28;20056;-82